sensor_id;sensor_type;location;lat;lon;timestamp;pressure;altitude;pressure_sealevel;temperature;humidity
65614;BME280;52283;49.292;10.572;2024-03-06T00:01:15;96454.41;;;6.47;100.00
65614;BME280;52283;49.292;10.572;2024-03-06T00:03:41;96469.19;;;6.44;100.00
65614;BME280;52283;49.292;10.572;2024-03-06T00:06:08;96458.50;;;6.52;100.00
65614;BME280;52283;49.292;10.572;2024-03-06T00:08:34;96461.00;;;6.50;100.00
65614;BME280;52283;49.292;10.572;2024-03-06T00:11:02;96462.59;;;6.41;100.00
65614;BME280;52283;49.292;10.572;2024-03-06T00:13:30;96468.63;;;6.40;100.00
65614;BME280;52283;49.292;10.572;2024-03-06T00:15:56;96467.75;;;6.34;100.00
65614;BME280;52283;49.292;10.572;2024-03-06T00:18:37;96465.19;;;6.30;100.00
65614;BME280;52283;49.292;10.572;2024-03-06T00:21:04;96465.94;;;6.31;100.00
65614;BME280;52283;49.292;10.572;2024-03-06T00:23:30;96469.19;;;6.44;100.00
65614;BME280;52283;49.292;10.572;2024-03-06T00:25:57;96468.28;;;6.62;100.00
65614;BME280;52283;49.292;10.572;2024-03-06T00:28:23;96470.28;;;6.47;100.00
65614;BME280;52283;49.292;10.572;2024-03-06T00:30:51;96476.28;;;6.45;100.00
65614;BME280;52283;49.292;10.572;2024-03-06T00:33:17;96476.28;;;6.30;100.00
65614;BME280;52283;49.292;10.572;2024-03-06T00:35:44;96490.72;;;6.34;100.00
65614;BME280;52283;49.292;10.572;2024-03-06T00:38:10;96485.25;;;6.25;100.00
65614;BME280;52283;49.292;10.572;2024-03-06T00:40:39;96485.94;;;6.35;100.00
65614;BME280;52283;49.292;10.572;2024-03-06T00:43:05;96483.94;;;6.35;100.00
65614;BME280;52283;49.292;10.572;2024-03-06T00:45:32;96475.31;;;6.33;100.00
65614;BME280;52283;49.292;10.572;2024-03-06T00:48:00;96484.03;;;6.26;100.00
65614;BME280;52283;49.292;10.572;2024-03-06T00:50:26;96487.88;;;6.43;100.00
65614;BME280;52283;49.292;10.572;2024-03-06T00:52:52;96488.56;;;6.53;100.00
65614;BME280;52283;49.292;10.572;2024-03-06T00:55:19;96488.19;;;6.60;100.00
65614;BME280;52283;49.292;10.572;2024-03-06T00:57:45;96480.91;;;6.48;100.00
65614;BME280;52283;49.292;10.572;2024-03-06T01:00:13;96482.44;;;6.49;100.00
65614;BME280;52283;49.292;10.572;2024-03-06T01:02:41;96484.94;;;6.62;100.00
65614;BME280;52283;49.292;10.572;2024-03-06T01:05:09;96487.44;;;6.60;100.00
65614;BME280;52283;49.292;10.572;2024-03-06T01:07:37;96486.78;;;6.26;100.00
65614;BME280;52283;49.292;10.572;2024-03-06T01:10:05;96473.97;;;6.29;100.00
65614;BME280;52283;49.292;10.572;2024-03-06T01:12:32;96484.22;;;6.37;100.00
65614;BME280;52283;49.292;10.572;2024-03-06T01:14:59;96490.03;;;6.25;100.00
65614;BME280;52283;49.292;10.572;2024-03-06T01:17:25;96490.63;;;6.29;100.00
65614;BME280;52283;49.292;10.572;2024-03-06T01:19:52;96486.75;;;6.11;100.00
65614;BME280;52283;49.292;10.572;2024-03-06T01:22:19;96481.66;;;6.10;100.00
65614;BME280;52283;49.292;10.572;2024-03-06T01:24:46;96490.94;;;6.07;100.00
65614;BME280;52283;49.292;10.572;2024-03-06T01:27:15;96486.94;;;6.08;100.00
65614;BME280;52283;49.292;10.572;2024-03-06T01:29:42;96493.41;;;6.05;100.00
65614;BME280;52283;49.292;10.572;2024-03-06T01:32:08;96493.66;;;5.92;100.00
65614;BME280;52283;49.292;10.572;2024-03-06T01:34:35;96486.38;;;5.95;100.00
65614;BME280;52283;49.292;10.572;2024-03-06T01:37:02;96495.94;;;5.94;100.00
65614;BME280;52283;49.292;10.572;2024-03-06T01:39:30;96500.22;;;6.04;100.00
65614;BME280;52283;49.292;10.572;2024-03-06T01:41:57;96491.94;;;5.95;100.00
65614;BME280;52283;49.292;10.572;2024-03-06T01:44:23;96496.81;;;6.00;100.00
65614;BME280;52283;49.292;10.572;2024-03-06T01:46:50;96496.19;;;6.05;100.00
65614;BME280;52283;49.292;10.572;2024-03-06T01:49:16;96494.00;;;6.09;100.00
65614;BME280;52283;49.292;10.572;2024-03-06T01:51:47;96488.31;;;6.03;100.00
65614;BME280;52283;49.292;10.572;2024-03-06T01:54:15;96494.03;;;6.00;100.00
65614;BME280;52283;49.292;10.572;2024-03-06T01:56:45;96490.75;;;6.10;100.00
65614;BME280;52283;49.292;10.572;2024-03-06T01:59:13;96492.81;;;6.01;100.00
65614;BME280;52283;49.292;10.572;2024-03-06T02:01:39;96479.56;;;6.05;100.00
65614;BME280;52283;49.292;10.572;2024-03-06T02:04:06;96482.06;;;5.94;100.00
65614;BME280;52283;49.292;10.572;2024-03-06T02:06:34;96481.91;;;5.97;100.00
65614;BME280;52283;49.292;10.572;2024-03-06T02:09:01;96484.56;;;5.92;100.00
65614;BME280;52283;49.292;10.572;2024-03-06T02:11:29;96489.00;;;5.89;100.00
65614;BME280;52283;49.292;10.572;2024-03-06T02:13:56;96472.22;;;5.93;100.00
65614;BME280;52283;49.292;10.572;2024-03-06T02:16:23;96469.91;;;5.91;100.00
65614;BME280;52283;49.292;10.572;2024-03-06T02:18:51;96474.84;;;5.87;100.00
65614;BME280;52283;49.292;10.572;2024-03-06T02:21:20;96464.78;;;5.99;100.00
65614;BME280;52283;49.292;10.572;2024-03-06T02:23:47;96458.22;;;5.87;100.00
65614;BME280;52283;49.292;10.572;2024-03-06T02:26:13;96464.19;;;5.95;100.00
65614;BME280;52283;49.292;10.572;2024-03-06T02:28:46;96462.44;;;6.06;100.00
65614;BME280;52283;49.292;10.572;2024-03-06T02:31:13;96461.25;;;5.98;100.00
65614;BME280;52283;49.292;10.572;2024-03-06T02:33:39;96463.00;;;6.10;100.00
65614;BME280;52283;49.292;10.572;2024-03-06T02:36:06;96465.22;;;6.21;100.00
65614;BME280;52283;49.292;10.572;2024-03-06T02:38:34;96468.75;;;6.07;100.00
65614;BME280;52283;49.292;10.572;2024-03-06T02:41:01;96466.91;;;6.28;100.00
65614;BME280;52283;49.292;10.572;2024-03-06T02:43:28;96476.31;;;6.21;100.00
65614;BME280;52283;49.292;10.572;2024-03-06T02:45:55;96473.97;;;6.29;100.00
65614;BME280;52283;49.292;10.572;2024-03-06T02:48:21;96474.56;;;6.33;100.00
65614;BME280;52283;49.292;10.572;2024-03-06T02:50:48;96475.31;;;6.33;100.00
65614;BME280;52283;49.292;10.572;2024-03-06T02:53:14;96473.06;;;6.47;100.00
65614;BME280;52283;49.292;10.572;2024-03-06T02:55:42;96473.75;;;6.18;100.00
65614;BME280;52283;49.292;10.572;2024-03-06T02:58:08;96468.59;;;6.01;100.00
65614;BME280;52283;49.292;10.572;2024-03-06T03:00:35;96461.41;;;5.95;100.00
65614;BME280;52283;49.292;10.572;2024-03-06T03:03:01;96464.91;;;6.04;100.00
65614;BME280;52283;49.292;10.572;2024-03-06T03:05:28;96469.75;;;5.95;100.00
65614;BME280;52283;49.292;10.572;2024-03-06T03:07:55;96465.91;;;5.92;100.00
65614;BME280;52283;49.292;10.572;2024-03-06T03:10:21;96464.84;;;5.90;100.00
65614;BME280;52283;49.292;10.572;2024-03-06T03:12:51;96467.16;;;5.91;100.00
65614;BME280;52283;49.292;10.572;2024-03-06T03:15:17;96473.09;;;5.99;100.00
65614;BME280;52283;49.292;10.572;2024-03-06T03:17:44;96469.03;;;6.09;100.00
65614;BME280;52283;49.292;10.572;2024-03-06T03:20:11;96470.50;;;6.19;100.00
65614;BME280;52283;49.292;10.572;2024-03-06T03:22:37;96474.78;;;6.20;100.00
65614;BME280;52283;49.292;10.572;2024-03-06T03:25:07;96472.34;;;6.37;100.00
65614;BME280;52283;49.292;10.572;2024-03-06T03:27:33;96482.78;;;6.27;100.00
65614;BME280;52283;49.292;10.572;2024-03-06T03:30:01;96475.50;;;6.30;100.00
65614;BME280;52283;49.292;10.572;2024-03-06T03:32:28;96472.84;;;6.35;100.00
65614;BME280;52283;49.292;10.572;2024-03-06T03:34:54;96474.78;;;6.20;100.00
65614;BME280;52283;49.292;10.572;2024-03-06T03:37:21;96475.09;;;6.22;100.00
65614;BME280;52283;49.292;10.572;2024-03-06T03:39:48;96475.47;;;6.15;100.00
65614;BME280;52283;49.292;10.572;2024-03-06T03:42:15;96478.72;;;6.14;100.00
65614;BME280;52283;49.292;10.572;2024-03-06T03:44:41;96469.47;;;6.31;100.00
65614;BME280;52283;49.292;10.572;2024-03-06T03:47:09;96482.91;;;6.09;100.00
65614;BME280;52283;49.292;10.572;2024-03-06T03:49:37;96485.91;;;6.20;100.00
65614;BME280;52283;49.292;10.572;2024-03-06T03:52:04;96492.69;;;6.19;100.00
65614;BME280;52283;49.292;10.572;2024-03-06T03:54:30;96483.69;;;6.09;100.00
65614;BME280;52283;49.292;10.572;2024-03-06T03:56:56;96481.38;;;6.08;100.00
65614;BME280;52283;49.292;10.572;2024-03-06T03:59:24;96491.63;;;6.17;100.00
65614;BME280;52283;49.292;10.572;2024-03-06T04:01:51;96480.63;;;6.22;100.00
65614;BME280;52283;49.292;10.572;2024-03-06T04:04:18;96490.84;;;6.40;100.00
65614;BME280;52283;49.292;10.572;2024-03-06T04:06:46;96485.38;;;6.31;100.00
65614;BME280;52283;49.292;10.572;2024-03-06T04:09:13;96478.88;;;6.34;100.00
65614;BME280;52283;49.292;10.572;2024-03-06T04:11:40;96472.84;;;6.35;100.00
65614;BME280;52283;49.292;10.572;2024-03-06T04:14:07;96486.72;;;6.35;100.00
65614;BME280;52283;49.292;10.572;2024-03-06T04:16:33;96485.50;;;6.51;100.00
65614;BME280;52283;49.292;10.572;2024-03-06T04:19:00;96487.00;;;6.37;100.00
65614;BME280;52283;49.292;10.572;2024-03-06T04:21:28;96496.44;;;6.55;100.00
65614;BME280;52283;49.292;10.572;2024-03-06T04:23:55;96499.50;;;6.57;100.00
65614;BME280;52283;49.292;10.572;2024-03-06T04:26:21;96495.59;;;6.78;100.00
65614;BME280;52283;49.292;10.572;2024-03-06T04:28:47;96496.56;;;6.75;100.00
65614;BME280;52283;49.292;10.572;2024-03-06T04:31:14;96499.81;;;6.73;100.00
65614;BME280;52283;49.292;10.572;2024-03-06T04:33:41;96500.56;;;6.74;100.00
65614;BME280;52283;49.292;10.572;2024-03-06T04:36:08;96504.50;;;6.67;100.00
65614;BME280;52283;49.292;10.572;2024-03-06T04:38:36;96517.34;;;6.80;100.00
65614;BME280;52283;49.292;10.572;2024-03-06T04:41:04;96509.94;;;6.62;100.00
65614;BME280;52283;49.292;10.572;2024-03-06T04:43:31;96518.81;;;6.51;100.00
65614;BME280;52283;49.292;10.572;2024-03-06T04:45:57;96518.53;;;6.49;100.00
65614;BME280;52283;49.292;10.572;2024-03-06T04:48:24;96508.50;;;6.52;100.00
65614;BME280;52283;49.292;10.572;2024-03-06T04:50:51;96519.03;;;6.62;100.00
65614;BME280;52283;49.292;10.572;2024-03-06T04:53:18;96521.69;;;6.57;100.00
65614;BME280;52283;49.292;10.572;2024-03-06T04:55:46;96516.44;;;6.59;100.00
65614;BME280;52283;49.292;10.572;2024-03-06T04:58:13;96518.44;;;6.58;100.00
65614;BME280;52283;49.292;10.572;2024-03-06T05:00:39;96522.38;;;6.52;100.00
65614;BME280;52283;49.292;10.572;2024-03-06T05:03:06;96521.50;;;6.60;100.00
65614;BME280;52283;49.292;10.572;2024-03-06T05:05:32;96525.53;;;6.59;100.00
65614;BME280;52283;49.292;10.572;2024-03-06T05:07:59;96526.78;;;6.58;100.00
65614;BME280;52283;49.292;10.572;2024-03-06T05:10:24;96527.06;;;6.60;100.00
65614;BME280;52283;49.292;10.572;2024-03-06T05:12:53;96533.81;;;6.45;100.00
65614;BME280;52283;49.292;10.572;2024-03-06T05:15:20;96538.84;;;6.55;100.00
65614;BME280;52283;49.292;10.572;2024-03-06T05:17:46;96533.47;;;6.52;100.00
65614;BME280;52283;49.292;10.572;2024-03-06T05:20:13;96535.41;;;6.60;100.00
65614;BME280;52283;49.292;10.572;2024-03-06T05:22:40;96541.84;;;6.66;100.00
65614;BME280;52283;49.292;10.572;2024-03-06T05:25:07;96544.69;;;6.57;100.00
65614;BME280;52283;49.292;10.572;2024-03-06T05:27:33;96547.22;;;6.70;100.00
65614;BME280;52283;49.292;10.572;2024-03-06T05:30:01;96541.56;;;6.79;100.00
65614;BME280;52283;49.292;10.572;2024-03-06T05:32:29;96547.22;;;6.70;100.00
65614;BME280;52283;49.292;10.572;2024-03-06T05:34:56;96550.34;;;6.63;100.00
65614;BME280;52283;49.292;10.572;2024-03-06T05:37:23;96556.13;;;6.74;100.00
65614;BME280;52283;49.292;10.572;2024-03-06T05:39:50;96561.78;;;6.80;100.00
65614;BME280;52283;49.292;10.572;2024-03-06T05:42:17;96558.91;;;6.74;100.00
65614;BME280;52283;49.292;10.572;2024-03-06T05:44:43;96565.13;;;6.84;100.00
65614;BME280;52283;49.292;10.572;2024-03-06T05:47:11;96558.19;;;6.64;100.00
65614;BME280;52283;49.292;10.572;2024-03-06T05:49:37;96562.97;;;6.49;100.00
65614;BME280;52283;49.292;10.572;2024-03-06T05:52:04;96568.03;;;6.51;100.00
65614;BME280;52283;49.292;10.572;2024-03-06T05:54:30;96567.00;;;6.63;100.00
65614;BME280;52283;49.292;10.572;2024-03-06T05:56:58;96570.19;;;6.70;100.00
65614;BME280;52283;49.292;10.572;2024-03-06T05:59:25;96566.94;;;6.72;100.00
65614;BME280;52283;49.292;10.572;2024-03-06T06:01:51;96572.22;;;6.85;100.00
65614;BME280;52283;49.292;10.572;2024-03-06T06:04:19;96569.53;;;6.76;100.00
65614;BME280;52283;49.292;10.572;2024-03-06T06:06:47;96568.06;;;6.65;100.00
65614;BME280;52283;49.292;10.572;2024-03-06T06:09:13;96574.72;;;6.83;100.00
65614;BME280;52283;49.292;10.572;2024-03-06T06:11:41;96581.13;;;6.74;100.00
65614;BME280;52283;49.292;10.572;2024-03-06T06:14:08;96585.47;;;6.66;100.00
65614;BME280;52283;49.292;10.572;2024-03-06T06:16:35;96593.22;;;6.62;100.00
65614;BME280;52283;49.292;10.572;2024-03-06T06:19:01;96595.19;;;6.70;100.00
65614;BME280;52283;49.292;10.572;2024-03-06T06:21:30;96596.16;;;6.67;100.00
65614;BME280;52283;49.292;10.572;2024-03-06T06:23:56;96602.28;;;6.71;100.00
65614;BME280;52283;49.292;10.572;2024-03-06T06:26:23;96593.81;;;6.66;100.00
65614;BME280;52283;49.292;10.572;2024-03-06T06:28:49;96597.78;;;6.74;100.00
65614;BME280;52283;49.292;10.572;2024-03-06T06:31:16;96602.50;;;6.83;100.00
65614;BME280;52283;49.292;10.572;2024-03-06T06:33:42;96600.47;;;6.83;100.00
65614;BME280;52283;49.292;10.572;2024-03-06T06:36:10;96600.78;;;6.85;100.00
65614;BME280;52283;49.292;10.572;2024-03-06T06:38:38;96611.66;;;6.74;100.00
65614;BME280;52283;49.292;10.572;2024-03-06T06:41:05;96606.78;;;6.69;100.00
65614;BME280;52283;49.292;10.572;2024-03-06T06:43:31;96609.94;;;6.77;100.00
65614;BME280;52283;49.292;10.572;2024-03-06T06:45:58;96613.56;;;6.68;100.00
65614;BME280;52283;49.292;10.572;2024-03-06T06:48:24;96604.09;;;6.75;100.00
65614;BME280;52283;49.292;10.572;2024-03-06T06:50:50;96610.31;;;6.69;100.00
65614;BME280;52283;49.292;10.572;2024-03-06T06:53:17;96616.66;;;6.85;100.00
65614;BME280;52283;49.292;10.572;2024-03-06T06:55:45;96613.03;;;6.79;100.00
65614;BME280;52283;49.292;10.572;2024-03-06T06:58:11;96618.56;;;6.79;100.00
65614;BME280;52283;49.292;10.572;2024-03-06T07:00:38;96616.81;;;6.90;100.00
65614;BME280;52283;49.292;10.572;2024-03-06T07:03:04;96619.28;;;6.88;100.00
65614;BME280;52283;49.292;10.572;2024-03-06T07:05:31;96615.91;;;6.84;100.00
65614;BME280;52283;49.292;10.572;2024-03-06T07:07:57;96624.53;;;6.86;100.00
65614;BME280;52283;49.292;10.572;2024-03-06T07:10:24;96625.47;;;6.83;100.00
65614;BME280;52283;49.292;10.572;2024-03-06T07:12:54;96623.69;;;6.95;100.00
65614;BME280;52283;49.292;10.572;2024-03-06T07:15:20;96624.72;;;6.59;100.00
65614;BME280;52283;49.292;10.572;2024-03-06T07:17:47;96629.56;;;6.73;100.00
65614;BME280;52283;49.292;10.572;2024-03-06T07:20:13;96639.91;;;6.72;100.00
65614;BME280;52283;49.292;10.572;2024-03-06T07:22:40;96634.09;;;6.85;100.00
65614;BME280;52283;49.292;10.572;2024-03-06T07:25:08;96630.06;;;6.71;100.00
65614;BME280;52283;49.292;10.572;2024-03-06T07:27:35;96625.56;;;6.50;100.00
65614;BME280;52283;49.292;10.572;2024-03-06T07:30:03;96631.47;;;6.67;100.00
65614;BME280;52283;49.292;10.572;2024-03-06T07:32:30;96627.78;;;6.85;100.00
65614;BME280;52283;49.292;10.572;2024-03-06T07:34:57;96631.81;;;6.60;100.00
65614;BME280;52283;49.292;10.572;2024-03-06T07:37:23;96637.72;;;6.53;100.00
65614;BME280;52283;49.292;10.572;2024-03-06T07:39:50;96634.28;;;6.82;100.00
65614;BME280;52283;49.292;10.572;2024-03-06T07:42:16;96641.63;;;6.70;100.00
65614;BME280;52283;49.292;10.572;2024-03-06T07:44:43;96641.81;;;6.66;100.00
65614;BME280;52283;49.292;10.572;2024-03-06T07:47:11;96641.09;;;6.81;100.00
65614;BME280;52283;49.292;10.572;2024-03-06T07:49:39;96649.91;;;6.79;100.00
65614;BME280;52283;49.292;10.572;2024-03-06T07:52:06;96647.59;;;6.78;100.00
65614;BME280;52283;49.292;10.572;2024-03-06T07:54:32;96648.94;;;6.82;100.00
65614;BME280;52283;49.292;10.572;2024-03-06T07:56:59;96656.66;;;6.87;100.00
65614;BME280;52283;49.292;10.572;2024-03-06T07:59:25;96658.47;;;6.90;100.00
65614;BME280;52283;49.292;10.572;2024-03-06T08:01:52;96658.13;;;6.73;100.00
65614;BME280;52283;49.292;10.572;2024-03-06T08:04:21;96657.84;;;6.86;100.00
65614;BME280;52283;49.292;10.572;2024-03-06T08:06:48;96667.19;;;6.98;100.00
65614;BME280;52283;49.292;10.572;2024-03-06T08:09:15;96661.94;;;7.00;100.00
65614;BME280;52283;49.292;10.572;2024-03-06T08:11:42;96660.97;;;7.03;100.00
65614;BME280;52283;49.292;10.572;2024-03-06T08:14:09;96657.81;;;6.95;100.00
65614;BME280;52283;49.292;10.572;2024-03-06T08:16:35;96656.38;;;7.00;100.00
65614;BME280;52283;49.292;10.572;2024-03-06T08:19:02;96661.31;;;7.20;100.00
65614;BME280;52283;49.292;10.572;2024-03-06T08:21:30;96664.88;;;7.20;100.00
65614;BME280;52283;49.292;10.572;2024-03-06T08:23:57;96670.16;;;6.94;100.00
65614;BME280;52283;49.292;10.572;2024-03-06T08:26:23;96663.00;;;7.02;100.00
65614;BME280;52283;49.292;10.572;2024-03-06T08:28:50;96668.84;;;7.04;100.00
65614;BME280;52283;49.292;10.572;2024-03-06T08:31:17;96668.88;;;7.19;100.00
65614;BME280;52283;49.292;10.572;2024-03-06T08:33:44;96667.66;;;7.20;100.00
65614;BME280;52283;49.292;10.572;2024-03-06T08:36:10;96664.00;;;7.14;100.00
65614;BME280;52283;49.292;10.572;2024-03-06T08:38:40;96677.03;;;7.23;100.00
65614;BME280;52283;49.292;10.572;2024-03-06T08:41:07;96680.25;;;7.07;100.00
65614;BME280;52283;49.292;10.572;2024-03-06T08:43:33;96677.19;;;7.04;100.00
65614;BME280;52283;49.292;10.572;2024-03-06T08:46:00;96682.09;;;7.10;100.00
65614;BME280;52283;49.292;10.572;2024-03-06T08:48:26;96691.97;;;7.11;100.00
65614;BME280;52283;49.292;10.572;2024-03-06T08:50:53;96691.84;;;7.05;100.00
65614;BME280;52283;49.292;10.572;2024-03-06T08:53:20;96700.59;;;7.13;100.00
65614;BME280;52283;49.292;10.572;2024-03-06T08:55:47;96697.31;;;7.38;100.00
65614;BME280;52283;49.292;10.572;2024-03-06T08:58:13;96691.13;;;7.19;100.00
65614;BME280;52283;49.292;10.572;2024-03-06T09:00:40;96698.56;;;7.37;100.00
65614;BME280;52283;49.292;10.572;2024-03-06T09:03:10;96708.34;;;7.09;100.00
65614;BME280;52283;49.292;10.572;2024-03-06T09:05:37;96706.50;;;7.44;100.00
65614;BME280;52283;49.292;10.572;2024-03-06T09:08:04;96705.13;;;7.25;100.00
65614;BME280;52283;49.292;10.572;2024-03-06T09:10:30;96713.88;;;7.32;100.00
65614;BME280;52283;49.292;10.572;2024-03-06T09:12:58;96718.81;;;7.14;100.00
65614;BME280;52283;49.292;10.572;2024-03-06T09:15:25;96711.38;;;6.96;100.00
65614;BME280;52283;49.292;10.572;2024-03-06T09:17:51;96714.41;;;7.22;100.00
65614;BME280;52283;49.292;10.572;2024-03-06T09:20:18;96723.22;;;7.20;100.00
65614;BME280;52283;49.292;10.572;2024-03-06T09:22:44;96720.56;;;7.26;100.00
65614;BME280;52283;49.292;10.572;2024-03-06T09:25:12;96724.72;;;7.45;100.00
65614;BME280;52283;49.292;10.572;2024-03-06T09:27:39;96722.84;;;7.51;100.00
65614;BME280;52283;49.292;10.572;2024-03-06T09:30:08;96715.19;;;7.76;100.00
65614;BME280;52283;49.292;10.572;2024-03-06T09:32:35;96722.91;;;7.42;100.00
65614;BME280;52283;49.292;10.572;2024-03-06T09:35:01;96724.25;;;7.32;100.00
65614;BME280;52283;49.292;10.572;2024-03-06T09:37:28;96727.50;;;7.45;100.00
65614;BME280;52283;49.292;10.572;2024-03-06T09:39:55;96722.94;;;7.57;100.00
65614;BME280;52283;49.292;10.572;2024-03-06T09:42:22;96732.16;;;7.63;100.00
65614;BME280;52283;49.292;10.572;2024-03-06T09:44:49;96739.00;;;7.77;100.00
65614;BME280;52283;49.292;10.572;2024-03-06T09:47:21;96733.50;;;7.68;100.00
65614;BME280;52283;49.292;10.572;2024-03-06T09:49:50;96736.50;;;7.93;100.00
65614;BME280;52283;49.292;10.572;2024-03-06T09:52:18;96734.59;;;8.14;100.00
65614;BME280;52283;49.292;10.572;2024-03-06T09:54:45;96731.72;;;7.94;100.00
65614;BME280;52283;49.292;10.572;2024-03-06T09:57:11;96736.00;;;7.80;100.00
65614;BME280;52283;49.292;10.572;2024-03-06T09:59:40;96743.31;;;8.07;100.00
65614;BME280;52283;49.292;10.572;2024-03-06T10:02:19;96748.16;;;7.68;100.00
65614;BME280;52283;49.292;10.572;2024-03-06T10:04:54;96747.66;;;7.93;100.00
65614;BME280;52283;49.292;10.572;2024-03-06T10:07:22;96743.97;;;7.87;100.00
65614;BME280;52283;49.292;10.572;2024-03-06T10:09:49;96749.06;;;7.89;100.00
65614;BME280;52283;49.292;10.572;2024-03-06T10:12:17;96748.78;;;7.87;100.00
65614;BME280;52283;49.292;10.572;2024-03-06T10:14:49;96748.28;;;7.88;100.00
65614;BME280;52283;49.292;10.572;2024-03-06T10:17:20;96749.16;;;8.09;100.00
65614;BME280;52283;49.292;10.572;2024-03-06T10:19:48;96750.84;;;7.62;100.00
65614;BME280;52283;49.292;10.572;2024-03-06T10:22:17;96751.09;;;8.03;100.00
65614;BME280;52283;49.292;10.572;2024-03-06T10:24:44;96760.00;;;7.78;100.00
65614;BME280;52283;49.292;10.572;2024-03-06T10:27:14;96750.84;;;7.62;100.00
65614;BME280;52283;49.292;10.572;2024-03-06T10:29:41;96758.19;;;7.89;100.00
65614;BME280;52283;49.292;10.572;2024-03-06T10:32:08;96755.38;;;7.89;100.00
65614;BME280;52283;49.292;10.572;2024-03-06T10:34:37;96762.22;;;8.03;100.00
65614;BME280;52283;49.292;10.572;2024-03-06T10:37:04;96761.72;;;7.90;100.00
65614;BME280;52283;49.292;10.572;2024-03-06T10:39:33;96765.63;;;7.69;100.00
65614;BME280;52283;49.292;10.572;2024-03-06T10:42:02;96767.88;;;7.79;100.00
65614;BME280;52283;49.292;10.572;2024-03-06T10:44:32;96767.03;;;8.17;100.00
65614;BME280;52283;49.292;10.572;2024-03-06T10:47:02;96767.31;;;8.19;100.00
65614;BME280;52283;49.292;10.572;2024-03-06T10:49:30;96763.97;;;8.15;100.00
65614;BME280;52283;49.292;10.572;2024-03-06T10:51:59;96765.78;;;8.18;100.00
65614;BME280;52283;49.292;10.572;2024-03-06T10:54:26;96771.91;;;8.08;100.00
65614;BME280;52283;49.292;10.572;2024-03-06T10:56:53;96774.06;;;8.42;100.00
65614;BME280;52283;49.292;10.572;2024-03-06T10:59:21;96769.13;;;8.67;100.00
65614;BME280;52283;49.292;10.572;2024-03-06T11:01:53;96772.81;;;8.58;100.00
65614;BME280;52283;49.292;10.572;2024-03-06T11:04:20;96764.03;;;8.80;100.00
65614;BME280;52283;49.292;10.572;2024-03-06T11:06:46;96750.19;;;8.71;100.00
65614;BME280;52283;49.292;10.572;2024-03-06T11:09:14;96758.97;;;8.64;100.00
65614;BME280;52283;49.292;10.572;2024-03-06T11:11:47;96753.94;;;8.68;100.00
65614;BME280;52283;49.292;10.572;2024-03-06T11:14:14;96753.75;;;9.27;100.00
65614;BME280;52283;49.292;10.572;2024-03-06T11:16:57;96754.38;;;8.96;100.00
65614;BME280;52283;49.292;10.572;2024-03-06T11:19:24;96755.19;;;8.81;100.00
65614;BME280;52283;49.292;10.572;2024-03-06T11:21:50;96753.59;;;9.36;100.00
65614;BME280;52283;49.292;10.572;2024-03-06T11:24:22;96760.56;;;9.05;100.00
65614;BME280;52283;49.292;10.572;2024-03-06T11:26:52;96750.91;;;9.21;100.00
65614;BME280;52283;49.292;10.572;2024-03-06T11:29:21;96748.38;;;9.03;100.00
65614;BME280;52283;49.292;10.572;2024-03-06T11:32:06;96751.94;;;9.44;100.00
65614;BME280;52283;49.292;10.572;2024-03-06T11:34:34;96757.31;;;9.27;100.00
65614;BME280;52283;49.292;10.572;2024-03-06T11:37:03;96746.19;;;9.73;100.00
65614;BME280;52283;49.292;10.572;2024-03-06T11:39:35;96740.50;;;9.62;100.00
65614;BME280;52283;49.292;10.572;2024-03-06T11:42:02;96739.63;;;9.76;100.00
65614;BME280;52283;49.292;10.572;2024-03-06T11:44:31;96737.00;;;9.93;100.00
65614;BME280;52283;49.292;10.572;2024-03-06T11:46:59;96741.75;;;9.61;100.00
65614;BME280;52283;49.292;10.572;2024-03-06T11:49:27;96741.50;;;9.39;100.00
65614;BME280;52283;49.292;10.572;2024-03-06T11:51:56;96744.28;;;9.39;100.00
65614;BME280;52283;49.292;10.572;2024-03-06T11:54:24;96747.41;;;9.26;100.00
65614;BME280;52283;49.292;10.572;2024-03-06T11:56:55;96748.78;;;9.16;100.00
65614;BME280;52283;49.292;10.572;2024-03-06T11:59:22;96751.88;;;9.18;100.00
65614;BME280;52283;49.292;10.572;2024-03-06T12:01:50;96760.09;;;9.07;100.00
65614;BME280;52283;49.292;10.572;2024-03-06T12:04:16;96769.66;;;9.21;100.00
65614;BME280;52283;49.292;10.572;2024-03-06T12:06:43;96760.38;;;9.09;100.00
65614;BME280;52283;49.292;10.572;2024-03-06T12:09:09;96763.63;;;9.07;100.00
65614;BME280;52283;49.292;10.572;2024-03-06T12:11:37;96765.31;;;8.99;100.00
65614;BME280;52283;49.292;10.572;2024-03-06T12:14:05;96754.03;;;9.29;100.00
65614;BME280;52283;49.292;10.572;2024-03-06T12:16:33;96756.50;;;9.41;100.00
65614;BME280;52283;49.292;10.572;2024-03-06T12:18:59;96752.94;;;9.41;100.00
65614;BME280;52283;49.292;10.572;2024-03-06T12:21:28;96746.44;;;9.50;100.00
65614;BME280;52283;49.292;10.572;2024-03-06T12:24:04;96737.47;;;9.40;100.00
65614;BME280;52283;49.292;10.572;2024-03-06T12:26:31;96745.03;;;8.99;100.00
65614;BME280;52283;49.292;10.572;2024-03-06T12:29:09;96750.88;;;9.01;100.00
65614;BME280;52283;49.292;10.572;2024-03-06T12:31:37;96758.63;;;9.11;100.00
65614;BME280;52283;49.292;10.572;2024-03-06T12:34:06;96751.72;;;9.07;100.00
65614;BME280;52283;49.292;10.572;2024-03-06T12:36:32;96761.69;;;9.13;100.00
65614;BME280;52283;49.292;10.572;2024-03-06T12:39:00;96760.06;;;8.86;100.00
65614;BME280;52283;49.292;10.572;2024-03-06T12:41:27;96761.72;;;8.78;100.00
65614;BME280;52283;49.292;10.572;2024-03-06T12:43:55;96769.63;;;9.00;100.00
65614;BME280;52283;49.292;10.572;2024-03-06T12:46:23;96763.09;;;9.03;100.00
65614;BME280;52283;49.292;10.572;2024-03-06T12:48:51;96762.38;;;9.08;100.00
65614;BME280;52283;49.292;10.572;2024-03-06T12:51:18;96757.75;;;9.20;100.00